createdAt,value
2019-04-05T00:02:31.086Z,13.40
2019-04-05T00:05:17.871Z,14.90
2019-04-05T00:08:04.513Z,15.17
2019-04-05T00:10:51.026Z,15.37
2019-04-05T00:13:37.565Z,15.20
2019-04-05T00:16:24.473Z,15.43
2019-04-05T00:19:10.974Z,17.37
2019-04-05T00:21:57.481Z,18.30
2019-04-05T00:24:44.331Z,18.20
2019-04-05T00:27:30.893Z,15.67
2019-04-05T00:30:17.429Z,18.37
2019-04-05T00:33:03.981Z,19.27
2019-04-05T00:35:50.818Z,17.37
2019-04-05T00:38:37.657Z,20.70
2019-04-05T00:41:24.522Z,21.50
2019-04-05T00:44:11.014Z,18.23
2019-04-05T00:46:57.894Z,19.67
2019-04-05T00:49:44.419Z,17.00
2019-04-05T00:52:31.158Z,17.53
2019-04-05T00:55:17.746Z,20.03
2019-04-05T00:58:04.276Z,18.23
2019-04-05T01:00:50.799Z,21.40
2019-04-05T01:03:37.596Z,21.67
2019-04-05T01:06:24.499Z,21.83
2019-04-05T01:09:11.126Z,20.37
2019-04-05T01:11:57.857Z,20.93
2019-04-05T01:14:45.428Z,23.67
2019-04-05T01:17:31.945Z,23.03
2019-04-05T01:20:18.738Z,23.80
2019-04-05T01:23:05.472Z,22.73
2019-04-05T01:25:51.930Z,21.77
2019-04-05T01:28:38.429Z,21.47
2019-04-05T01:31:25.342Z,22.53
2019-04-05T01:34:11.857Z,24.40
2019-04-05T01:36:58.374Z,24.03
2019-04-05T01:39:45.168Z,22.00
2019-04-05T01:42:31.726Z,25.80
2019-04-05T01:45:18.577Z,25.77
2019-04-05T01:48:06.130Z,24.77
2019-04-05T01:50:52.726Z,22.30
2019-04-05T01:53:39.194Z,23.93
2019-04-05T01:56:26.029Z,25.87
2019-04-05T01:59:12.690Z,23.37
2019-04-05T02:01:59.209Z,22.83
2019-04-05T02:04:45.746Z,22.93
2019-04-05T02:07:32.522Z,27.80
2019-04-05T02:10:19.282Z,27.57
2019-04-05T02:13:05.824Z,26.40
2019-04-05T02:16:05.145Z,26.20
2019-04-05T02:18:41.077Z,26.80
2019-04-05T02:21:27.622Z,25.97
2019-04-05T02:24:14.457Z,26.00
2019-04-05T02:27:00.952Z,27.33
2019-04-05T02:29:47.765Z,28.43
2019-04-05T02:32:34.671Z,25.63
2019-04-05T02:35:21.439Z,26.17
2019-04-05T02:38:08.164Z,25.63
2019-04-05T02:40:58.227Z,26.17
2019-04-05T02:43:43.198Z,25.87
2019-04-05T02:46:29.754Z,28.83
2019-04-05T02:49:16.497Z,25.67
2019-04-05T02:52:03.007Z,27.80
2019-04-05T02:54:49.885Z,29.17
2019-04-05T02:57:36.626Z,25.47
2019-04-05T03:00:23.390Z,29.70
2019-04-05T03:03:09.907Z,28.40
2019-04-05T03:05:56.710Z,27.00
2019-04-05T03:08:43.456Z,25.60
2019-04-05T03:11:30.342Z,27.57
2019-04-05T03:14:16.915Z,28.00
2019-04-05T03:17:03.394Z,28.10
2019-04-05T03:19:49.945Z,26.93
2019-04-05T03:22:36.487Z,25.80
2019-04-05T03:25:22.960Z,25.87
2019-04-05T03:28:09.511Z,26.37
2019-04-05T03:30:56.051Z,27.63
2019-04-05T03:33:42.962Z,28.27
2019-04-05T03:36:29.735Z,25.50
2019-04-05T03:39:16.533Z,27.43
2019-04-05T03:42:03.322Z,27.60
2019-04-05T03:44:49.838Z,26.70
2019-04-05T03:47:36.422Z,24.47
2019-04-05T03:50:23.213Z,23.93
2019-04-05T03:53:09.732Z,23.77
2019-04-05T03:55:56.615Z,23.63
2019-04-05T03:58:43.775Z,26.30
2019-04-05T04:01:30.513Z,24.53
2019-04-05T04:04:17.026Z,24.67
2019-04-05T04:07:03.500Z,25.73
2019-04-05T04:09:50.258Z,25.97
2019-04-05T04:12:37.287Z,23.43
2019-04-05T04:15:23.922Z,24.07
2019-04-05T04:18:10.768Z,25.83
2019-04-05T04:20:57.501Z,26.93
2019-04-05T04:23:44.115Z,26.53
2019-04-05T04:26:30.962Z,25.23
2019-04-05T04:29:17.810Z,25.47
2019-04-05T04:32:04.422Z,26.93
2019-04-05T04:34:51.282Z,25.20
2019-04-05T04:37:37.865Z,28.83
2019-04-05T04:40:24.778Z,24.00
2019-04-05T04:43:11.466Z,24.90
2019-04-05T04:45:58.014Z,25.17
2019-04-05T04:48:44.627Z,25.60
2019-04-05T04:51:31.187Z,28.47
2019-04-05T04:54:17.765Z,30.23
2019-04-05T04:57:04.696Z,29.63
2019-04-05T04:59:51.423Z,29.53
2019-04-05T05:02:38.169Z,24.77
2019-04-05T05:05:24.770Z,27.43
2019-04-05T05:08:11.581Z,24.47
2019-04-05T05:10:58.207Z,27.07
2019-04-05T05:13:44.863Z,27.10
2019-04-05T05:16:31.620Z,26.23
2019-04-05T05:19:18.195Z,26.73
2019-04-05T05:22:05.105Z,28.73
2019-04-05T05:24:51.865Z,26.13
2019-04-05T05:27:38.672Z,25.93
2019-04-05T05:30:25.586Z,25.10
2019-04-05T05:33:12.426Z,24.73
2019-04-05T05:35:59.324Z,25.00
2019-04-05T05:38:45.984Z,26.53
2019-04-05T05:41:32.964Z,25.43
2019-04-05T05:44:19.745Z,25.97
2019-04-05T05:47:06.681Z,27.93
2019-04-05T05:49:53.469Z,24.83
2019-04-05T05:52:40.370Z,25.27
2019-04-05T05:55:29.917Z,25.17
2019-04-05T05:58:15.833Z,27.17
2019-04-05T06:01:02.829Z,27.00
2019-04-05T06:03:49.661Z,25.43
2019-04-05T06:06:36.326Z,27.57
2019-04-05T06:09:22.896Z,27.57
2019-04-05T06:12:09.377Z,24.07
2019-04-05T06:14:56.270Z,25.70
2019-04-05T06:17:42.784Z,25.23
2019-04-05T06:20:29.601Z,22.80
2019-04-05T06:23:16.196Z,24.90
2019-04-05T06:26:02.944Z,24.13
2019-04-05T06:28:49.541Z,25.17
2019-04-05T06:31:36.579Z,25.23
2019-04-05T06:34:23.410Z,24.77
2019-04-05T06:37:10.221Z,26.30
2019-04-05T06:39:56.872Z,25.20
2019-04-05T06:42:43.417Z,24.10
2019-04-05T06:45:29.921Z,24.10
2019-04-05T06:48:19.434Z,24.93
2019-04-05T06:51:05.345Z,24.23
2019-04-05T06:53:52.182Z,23.93
2019-04-05T06:56:38.845Z,25.53
2019-04-05T06:59:25.682Z,25.80
2019-04-05T07:02:12.514Z,22.60
2019-04-05T07:04:59.330Z,22.47
2019-04-05T07:07:45.956Z,24.03
2019-04-05T07:10:32.457Z,22.17
2019-04-05T07:13:20.055Z,22.70
2019-04-05T07:16:06.893Z,26.60
2019-04-05T07:18:54.530Z,22.67
2019-04-05T07:21:41.047Z,23.50
2019-04-05T07:24:27.659Z,25.87
2019-04-05T07:27:14.440Z,22.10
2019-04-05T07:30:01.128Z,23.30
2019-04-05T07:32:48.082Z,25.70
2019-04-05T07:35:34.537Z,28.23
2019-04-05T07:38:21.106Z,27.33
2019-04-05T07:41:08.050Z,26.23
2019-04-05T07:43:54.850Z,25.47
2019-04-05T07:46:41.602Z,23.93
2019-04-05T07:49:28.230Z,25.50
2019-04-05T07:52:14.808Z,26.73
2019-04-05T07:55:01.581Z,25.67
2019-04-05T07:57:49.215Z,20.73
2019-04-05T08:00:35.705Z,26.60
2019-04-05T08:03:22.446Z,30.47
2019-04-05T08:06:09.361Z,26.87
2019-04-05T08:08:56.145Z,26.73
2019-04-05T08:11:42.951Z,31.27
2019-04-05T08:14:29.482Z,24.60
2019-04-05T08:17:16.270Z,25.43
2019-04-05T08:20:03.069Z,26.90
2019-04-05T08:22:49.549Z,23.83
2019-04-05T08:25:36.491Z,26.43
2019-04-05T08:28:23.253Z,25.57
2019-04-05T08:31:11.059Z,24.77
2019-04-05T08:33:58.721Z,29.60
2019-04-05T08:36:45.513Z,25.67
2019-04-05T08:39:33.074Z,25.23
2019-04-05T08:42:19.789Z,26.20
2019-04-05T08:45:06.504Z,21.43
2019-04-05T08:47:53.062Z,27.73
2019-04-05T08:50:39.710Z,26.57
2019-04-05T08:53:26.559Z,26.47
2019-04-05T08:56:13.356Z,22.43
2019-04-05T08:59:00.016Z,25.80
2019-04-05T09:01:46.692Z,29.90
2019-04-05T09:04:33.278Z,24.00
2019-04-05T09:07:19.901Z,23.37
2019-04-05T09:10:06.443Z,21.70
2019-04-05T09:12:53.030Z,20.97
2019-04-05T09:15:40.669Z,23.43
2019-04-05T09:18:27.467Z,20.97
2019-04-05T09:21:14.276Z,23.63
2019-04-05T09:24:00.887Z,19.97
2019-04-05T09:26:47.656Z,19.47
2019-04-05T09:29:34.448Z,20.53
2019-04-05T09:32:21.085Z,20.97
2019-04-05T09:35:07.877Z,20.83
2019-04-05T09:37:54.388Z,19.83
2019-04-05T09:40:41.285Z,19.50
2019-04-05T09:43:27.821Z,23.20
2019-04-05T09:46:14.652Z,20.60
2019-04-05T09:49:01.442Z,18.33
2019-04-05T09:51:47.969Z,17.60
2019-04-05T09:54:34.808Z,17.13
2019-04-05T09:57:21.321Z,20.67
2019-04-05T10:00:09.762Z,21.03
2019-04-05T10:02:56.737Z,19.63
2019-04-05T10:05:43.295Z,22.90
2019-04-05T10:08:29.965Z,20.33
2019-04-05T10:11:17.421Z,19.47
2019-04-05T10:14:04.333Z,19.00
2019-04-05T10:16:51.182Z,22.47
2019-04-05T10:19:49.301Z,23.20
2019-04-05T10:22:26.253Z,21.73
2019-04-05T10:25:12.798Z,23.67
2019-04-05T10:27:59.620Z,21.20
2019-04-05T10:30:46.125Z,21.03
2019-04-05T10:33:32.997Z,23.23
2019-04-05T10:36:20.105Z,20.30
2019-04-05T10:39:08.404Z,24.67
2019-04-05T10:42:03.242Z,21.03
2019-04-05T10:44:43.673Z,19.47
2019-04-05T10:47:30.170Z,23.17
2019-04-05T10:50:16.904Z,21.67
2019-04-05T10:53:03.900Z,20.10
2019-04-05T10:55:50.636Z,20.87
2019-04-05T10:58:37.377Z,16.63
2019-04-05T11:01:23.993Z,19.23
2019-04-05T11:04:10.579Z,15.73
2019-04-05T11:06:57.319Z,19.67
2019-04-05T11:09:44.061Z,18.70
2019-04-05T11:12:31.563Z,15.87
2019-04-05T11:15:18.115Z,17.03
2019-04-05T11:18:04.956Z,17.80
2019-04-05T11:20:51.550Z,17.20
2019-04-05T11:23:38.101Z,15.67
2019-04-05T11:26:24.933Z,12.70
2019-04-05T11:29:12.711Z,16.90
2019-04-05T11:31:59.718Z,16.53
2019-04-05T11:34:46.281Z,13.90
2019-04-05T11:37:33.142Z,15.67
2019-04-05T11:40:19.709Z,17.77
2019-04-05T11:43:06.603Z,17.03
2019-04-05T11:45:53.422Z,18.03
2019-04-05T11:48:41.351Z,15.93
2019-04-05T11:51:28.343Z,15.27
2019-04-05T11:54:15.016Z,18.70
2019-04-05T11:57:01.807Z,13.80
2019-04-05T11:59:48.786Z,15.50
2019-04-05T12:02:37.840Z,13.67
2019-04-05T12:05:26.947Z,16.70
2019-04-05T12:08:12.777Z,16.00
2019-04-05T12:10:59.345Z,13.90
2019-04-05T12:13:47.771Z,18.40
2019-04-05T12:16:36.218Z,14.40
2019-04-05T12:19:23.353Z,18.33
2019-04-05T12:22:09.909Z,16.60
2019-04-05T12:24:56.401Z,17.53
2019-04-05T12:27:43.195Z,17.00
2019-04-05T12:30:30.185Z,17.30
2019-04-05T12:33:19.269Z,17.50
2019-04-05T12:36:05.519Z,18.00
2019-04-05T12:38:54.157Z,18.33
2019-04-05T12:41:40.993Z,17.73
2019-04-05T12:44:28.241Z,17.23
2019-04-05T12:47:15.777Z,19.17
2019-04-05T12:50:03.026Z,19.07
2019-04-05T12:52:49.649Z,17.63
2019-04-05T12:55:36.396Z,18.30
2019-04-05T12:58:25.472Z,18.27
2019-04-05T13:01:11.533Z,17.90
2019-04-05T13:03:58.762Z,16.57
2019-04-05T13:06:45.667Z,17.00
2019-04-05T13:09:32.273Z,19.13
2019-04-05T13:12:19.134Z,18.67
2019-04-05T13:15:12.832Z,19.53
2019-04-05T13:17:53.986Z,18.10
2019-04-05T13:20:40.538Z,22.20
2019-04-05T13:23:26.994Z,20.03
2019-04-05T13:26:13.789Z,18.80
2019-04-05T13:29:00.310Z,19.63
2019-04-05T13:31:48.698Z,18.27
2019-04-05T13:34:35.011Z,17.97
2019-04-05T13:37:21.909Z,15.30
2019-04-05T13:40:08.369Z,17.03
2019-04-05T13:42:55.182Z,17.47
2019-04-05T13:45:41.796Z,19.57
2019-04-05T13:48:28.584Z,20.90
2019-04-05T13:51:27.233Z,19.73
2019-04-05T13:54:03.558Z,17.57
2019-04-05T13:56:50.331Z,21.33
2019-04-05T13:59:36.963Z,18.47
2019-04-05T14:02:23.603Z,18.27
2019-04-05T14:05:10.641Z,16.57
2019-04-05T14:08:09.675Z,18.97
2019-04-05T14:10:45.706Z,18.60
2019-04-05T14:13:32.562Z,15.73
2019-04-05T14:16:19.342Z,16.43
2019-04-05T14:19:06.101Z,17.50
2019-04-05T14:21:53.719Z,17.83
2019-04-05T14:24:41.413Z,17.63
2019-04-05T14:27:27.953Z,17.67
2019-04-05T14:30:14.893Z,15.23
2019-04-05T14:33:01.709Z,19.50
2019-04-05T14:35:48.210Z,17.73
2019-04-05T14:38:35.102Z,15.57
2019-04-05T14:41:21.603Z,17.20
2019-04-05T14:44:08.360Z,17.57
2019-04-05T14:46:55.891Z,15.67
2019-04-05T14:49:43.512Z,19.57
2019-04-05T14:52:32.133Z,15.93
2019-04-05T14:55:30.588Z,17.57
2019-04-05T14:58:19.379Z,16.40
2019-04-05T15:01:06.078Z,17.00
2019-04-05T15:03:52.666Z,17.47
2019-04-05T15:06:39.441Z,17.40
2019-04-05T15:09:26.253Z,17.37
2019-04-05T15:12:12.860Z,19.33
2019-04-05T15:14:59.783Z,18.73
2019-04-05T15:17:48.338Z,18.17
2019-04-05T15:20:35.430Z,18.73
2019-04-05T15:23:22.404Z,18.10
2019-04-05T15:26:08.924Z,19.23
2019-04-05T15:28:55.835Z,17.80
2019-04-05T15:31:42.425Z,18.87
2019-04-05T15:34:29.277Z,19.77
2019-04-05T15:37:16.386Z,18.20
2019-04-05T15:40:04.025Z,17.70
2019-04-05T15:42:50.809Z,18.53
2019-04-05T15:45:42.882Z,18.97
2019-04-05T15:48:29.610Z,18.47
2019-04-05T15:51:16.397Z,19.07
2019-04-05T15:54:02.869Z,19.67
2019-04-05T15:56:49.401Z,16.83
2019-04-05T15:59:36.274Z,16.10
2019-04-05T16:02:22.784Z,20.10
2019-04-05T16:05:09.606Z,17.83
2019-04-05T16:07:56.177Z,20.80
2019-04-05T16:10:45.492Z,19.20
2019-04-05T16:13:30.950Z,20.43
2019-04-05T16:16:17.560Z,17.93
2019-04-05T16:19:04.229Z,19.47
2019-04-05T16:21:50.805Z,18.30
2019-04-05T16:24:37.441Z,19.97
2019-04-05T16:27:24.425Z,16.23
2019-04-05T16:30:10.933Z,20.63
2019-04-05T16:32:57.512Z,21.57
2019-04-05T16:35:44.438Z,18.07
2019-04-05T16:38:30.928Z,17.43
2019-04-05T16:41:17.773Z,18.10
2019-04-05T16:44:04.490Z,20.77
2019-04-05T16:46:51.061Z,19.90
2019-04-05T16:49:37.593Z,20.67
2019-04-05T16:52:24.381Z,24.73
2019-04-05T16:55:11.149Z,25.57
2019-04-05T16:57:57.791Z,24.37
2019-04-05T17:00:44.671Z,24.27
2019-04-05T17:03:31.217Z,30.17
2019-04-05T17:06:18.029Z,23.60
2019-04-05T17:09:05.101Z,22.17
2019-04-05T17:11:53.454Z,23.50
2019-04-05T17:14:40.237Z,21.63
2019-04-05T17:17:26.828Z,23.00
2019-04-05T17:20:13.642Z,25.33
2019-04-05T17:23:00.449Z,29.97
2019-04-05T17:25:47.148Z,25.63
2019-04-05T17:28:33.961Z,24.93
2019-04-05T17:31:20.621Z,29.07
2019-04-05T17:34:07.212Z,26.80
2019-04-05T17:36:53.722Z,31.27
2019-04-05T17:39:40.245Z,24.83
2019-04-05T17:42:27.032Z,27.23
2019-04-05T17:45:13.589Z,27.53
2019-04-05T17:48:00.369Z,27.63
2019-04-05T17:50:48.029Z,30.87
2019-04-05T17:53:34.621Z,25.67
2019-04-05T17:56:22.428Z,28.77
2019-04-05T17:59:09.279Z,24.73
2019-04-05T18:01:55.941Z,27.73
2019-04-05T18:04:42.706Z,28.00
2019-04-05T18:07:29.525Z,28.07
2019-04-05T18:10:16.166Z,27.40
2019-04-05T18:13:02.653Z,29.10
2019-04-05T18:15:52.683Z,27.47
2019-04-05T18:18:37.723Z,28.63
2019-04-05T18:21:24.468Z,31.67
2019-04-05T18:24:12.092Z,28.87
2019-04-05T18:26:58.941Z,29.87
2019-04-05T18:29:45.719Z,28.70
2019-04-05T18:32:32.257Z,27.93
2019-04-05T18:35:18.777Z,29.27
2019-04-05T18:38:05.536Z,29.67
2019-04-05T18:40:52.502Z,30.67
2019-04-05T18:43:39.345Z,28.17
2019-04-05T18:46:26.184Z,27.10
2019-04-05T18:49:12.706Z,26.00
2019-04-05T18:51:59.493Z,24.80
2019-04-05T18:54:46.254Z,30.00
2019-04-05T18:57:32.818Z,29.23
2019-04-05T19:00:19.308Z,28.90
2019-04-05T19:03:05.835Z,31.03
2019-04-05T19:05:52.369Z,28.03
2019-04-05T19:08:40.070Z,27.80
2019-04-05T19:11:27.106Z,26.00
2019-04-05T19:14:14.085Z,27.40
2019-04-05T19:17:01.030Z,26.93
2019-04-05T19:19:47.937Z,25.53
2019-04-05T19:22:34.733Z,26.50
2019-04-05T19:25:21.291Z,32.53
2019-04-05T19:28:08.250Z,27.53
2019-04-05T19:50:34.221Z,27.07
2019-04-05T19:53:20.798Z,27.73
2019-04-05T19:56:07.373Z,26.67
2019-04-05T19:58:53.942Z,28.23
2019-04-05T20:01:40.499Z,26.53
2019-04-05T20:04:27.271Z,24.90
2019-04-05T20:07:13.981Z,23.73
2019-04-05T20:10:00.741Z,26.17
2019-04-05T20:12:47.830Z,23.93
2019-04-05T20:15:34.372Z,24.57
2019-04-05T20:18:20.944Z,25.37
2019-04-05T20:21:07.757Z,25.93
2019-04-05T20:23:54.375Z,26.13
2019-04-05T20:26:41.193Z,27.63
2019-04-05T20:29:27.993Z,27.93
2019-04-05T20:32:14.841Z,27.83
2019-04-05T20:35:02.967Z,23.47
2019-04-05T20:37:49.824Z,25.73
2019-04-05T20:40:36.661Z,24.80
2019-04-05T20:43:23.338Z,26.67
2019-04-05T20:46:09.902Z,28.67
2019-04-05T20:48:56.440Z,27.93
2019-04-05T20:51:44.358Z,28.90
2019-04-05T20:54:30.846Z,25.20
2019-04-05T20:57:17.414Z,26.90
2019-04-05T21:00:04.301Z,27.40
2019-04-05T21:02:52.661Z,29.97
2019-04-05T21:05:39.206Z,28.97
2019-04-05T21:08:25.989Z,30.07
2019-04-05T21:11:12.581Z,28.87
2019-04-05T21:13:59.346Z,26.10
2019-04-05T21:16:45.994Z,24.70
2019-04-05T21:19:32.605Z,28.47
2019-04-05T21:22:19.338Z,28.47
2019-04-05T21:25:05.881Z,27.47
2019-04-05T21:27:52.686Z,27.17
2019-04-05T21:30:40.218Z,26.90
2019-04-05T21:33:27.959Z,25.23
2019-04-05T21:36:14.871Z,26.87
2019-04-05T21:39:01.625Z,27.70
2019-04-05T21:41:50.071Z,28.00
2019-04-05T21:44:38.295Z,31.20
2019-04-05T21:47:25.037Z,28.83
2019-04-05T21:50:11.520Z,30.33
2019-04-05T21:52:58.093Z,32.53
2019-04-05T21:55:44.905Z,28.17
2019-04-05T21:58:31.421Z,28.60
2019-04-05T22:01:17.957Z,29.67
2019-04-05T22:04:06.555Z,33.33
2019-04-05T22:06:53.288Z,29.90
2019-04-05T22:09:40.033Z,32.87
2019-04-05T22:12:31.388Z,31.17
2019-04-05T22:15:17.935Z,33.77
2019-04-05T22:18:04.726Z,32.27
2019-04-05T22:20:51.487Z,34.37
2019-04-05T22:23:38.146Z,31.63
2019-04-05T22:26:24.641Z,34.43
2019-04-05T22:29:11.316Z,36.50
2019-04-05T22:31:58.248Z,34.07
2019-04-05T22:34:44.786Z,34.20
2019-04-05T22:37:31.372Z,37.03
2019-04-05T22:40:18.366Z,39.10
2019-04-05T22:43:05.093Z,34.40
2019-04-05T22:45:51.882Z,33.53
2019-04-05T22:48:38.557Z,36.67
2019-04-05T22:51:25.080Z,34.80
2019-04-05T22:54:11.631Z,40.80
2019-04-05T22:56:58.296Z,37.30
2019-04-05T22:59:44.789Z,36.87
2019-04-05T23:02:31.341Z,31.30
2019-04-05T23:05:18.028Z,34.47
2019-04-05T23:08:04.716Z,36.03
2019-04-05T23:10:51.525Z,33.80
2019-04-05T23:13:38.410Z,37.90
2019-04-05T23:16:25.144Z,35.60
2019-04-05T23:19:11.885Z,39.87
2019-04-05T23:22:00.801Z,36.50
2019-04-05T23:24:46.993Z,34.10
2019-04-05T23:27:33.775Z,33.33
2019-04-05T23:30:21.572Z,36.37
2019-04-05T23:33:08.442Z,34.63
2019-04-05T23:35:55.225Z,35.40
2019-04-05T23:38:42.093Z,32.93
2019-04-05T23:41:28.701Z,37.90
2019-04-05T23:44:15.430Z,34.77
2019-04-05T23:47:02.291Z,36.00
2019-04-05T23:49:48.885Z,33.97
2019-04-05T23:52:35.428Z,36.20
2019-04-05T23:55:32.555Z,37.70
2019-04-05T23:58:10.692Z,36.50
